sensor_id;sensor_type;location;lat;lon;timestamp;P1;durP1;ratioP1;P2;durP2;ratioP2
49177;SDS011;35016;55.674;37.468;2023-05-02T00:01:18;6.45;;;1.50;;
49177;SDS011;35016;55.674;37.468;2023-05-02T00:03:46;5.05;;;1.30;;
49177;SDS011;35016;55.674;37.468;2023-05-02T00:06:13;3.72;;;1.38;;
49177;SDS011;35016;55.674;37.468;2023-05-02T00:08:40;6.53;;;1.80;;
49177;SDS011;35016;55.674;37.468;2023-05-02T00:11:07;4.15;;;1.15;;
49177;SDS011;35016;55.674;37.468;2023-05-02T00:13:34;7.88;;;1.83;;
49177;SDS011;35016;55.674;37.468;2023-05-02T00:16:01;5.22;;;1.60;;
49177;SDS011;35016;55.674;37.468;2023-05-02T00:18:28;5.85;;;1.90;;
49177;SDS011;35016;55.674;37.468;2023-05-02T00:20:55;5.18;;;1.60;;
49177;SDS011;35016;55.674;37.468;2023-05-02T00:23:22;4.80;;;1.30;;
49177;SDS011;35016;55.674;37.468;2023-05-02T00:25:49;4.07;;;1.67;;
49177;SDS011;35016;55.674;37.468;2023-05-02T00:28:17;7.05;;;2.33;;
49177;SDS011;35016;55.674;37.468;2023-05-02T00:30:44;1.98;;;0.93;;
49177;SDS011;35016;55.674;37.468;2023-05-02T00:33:12;7.72;;;2.25;;
49177;SDS011;35016;55.674;37.468;2023-05-02T00:35:41;7.25;;;1.80;;
49177;SDS011;35016;55.674;37.468;2023-05-02T00:38:08;5.63;;;1.40;;
49177;SDS011;35016;55.674;37.468;2023-05-02T00:40:42;7.05;;;1.73;;
49177;SDS011;35016;55.674;37.468;2023-05-02T00:43:13;4.47;;;1.35;;
49177;SDS011;35016;55.674;37.468;2023-05-02T00:45:42;3.65;;;1.42;;
49177;SDS011;35016;55.674;37.468;2023-05-02T00:48:10;5.82;;;1.38;;
49177;SDS011;35016;55.674;37.468;2023-05-02T00:50:39;6.55;;;1.75;;
49177;SDS011;35016;55.674;37.468;2023-05-02T00:53:10;3.50;;;1.27;;
49177;SDS011;35016;55.674;37.468;2023-05-02T00:55:37;8.05;;;2.28;;
49177;SDS011;35016;55.674;37.468;2023-05-02T00:58:06;5.95;;;1.48;;
49177;SDS011;35016;55.674;37.468;2023-05-02T01:06:42;4.88;;;1.60;;
49177;SDS011;35016;55.674;37.468;2023-05-02T01:15:08;4.53;;;1.48;;
49177;SDS011;35016;55.674;37.468;2023-05-02T01:17:39;5.50;;;1.65;;
49177;SDS011;35016;55.674;37.468;2023-05-02T01:20:11;4.05;;;1.08;;
49177;SDS011;35016;55.674;37.468;2023-05-02T01:22:42;3.28;;;1.20;;
49177;SDS011;35016;55.674;37.468;2023-05-02T01:25:17;5.50;;;1.10;;
49177;SDS011;35016;55.674;37.468;2023-05-02T01:30:37;6.18;;;1.80;;
49177;SDS011;35016;55.674;37.468;2023-05-02T01:33:10;5.63;;;1.48;;
49177;SDS011;35016;55.674;37.468;2023-05-02T01:35:39;6.13;;;1.35;;
49177;SDS011;35016;55.674;37.468;2023-05-02T01:38:12;4.78;;;1.25;;
49177;SDS011;35016;55.674;37.468;2023-05-02T01:40:42;4.13;;;1.10;;
49177;SDS011;35016;55.674;37.468;2023-05-02T01:43:11;4.82;;;1.25;;
49177;SDS011;35016;55.674;37.468;2023-05-02T01:45:40;5.32;;;1.52;;
49177;SDS011;35016;55.674;37.468;2023-05-02T01:48:11;4.30;;;1.23;;
49177;SDS011;35016;55.674;37.468;2023-05-02T01:50:40;3.17;;;1.15;;
49177;SDS011;35016;55.674;37.468;2023-05-02T01:53:10;5.13;;;1.48;;
49177;SDS011;35016;55.674;37.468;2023-05-02T01:55:40;5.38;;;1.48;;
49177;SDS011;35016;55.674;37.468;2023-05-02T01:58:11;3.17;;;1.13;;
49177;SDS011;35016;55.674;37.468;2023-05-02T02:00:40;2.80;;;0.98;;
49177;SDS011;35016;55.674;37.468;2023-05-02T02:03:11;3.92;;;1.20;;
49177;SDS011;35016;55.674;37.468;2023-05-02T02:05:39;4.40;;;1.20;;
49177;SDS011;35016;55.674;37.468;2023-05-02T02:08:08;4.65;;;1.42;;
49177;SDS011;35016;55.674;37.468;2023-05-02T02:10:35;3.40;;;0.90;;
49177;SDS011;35016;55.674;37.468;2023-05-02T02:16:00;4.15;;;1.25;;
49177;SDS011;35016;55.674;37.468;2023-05-02T02:18:31;3.28;;;1.08;;
49177;SDS011;35016;55.674;37.468;2023-05-02T02:21:03;3.67;;;1.45;;
49177;SDS011;35016;55.674;37.468;2023-05-02T02:23:33;3.55;;;1.08;;
49177;SDS011;35016;55.674;37.468;2023-05-02T02:26:02;5.07;;;1.40;;
49177;SDS011;35016;55.674;37.468;2023-05-02T02:28:32;6.85;;;1.55;;
49177;SDS011;35016;55.674;37.468;2023-05-02T02:31:00;5.10;;;1.50;;
49177;SDS011;35016;55.674;37.468;2023-05-02T02:33:28;3.40;;;1.10;;
49177;SDS011;35016;55.674;37.468;2023-05-02T02:36:04;2.67;;;1.00;;
49177;SDS011;35016;55.674;37.468;2023-05-02T02:38:41;4.22;;;1.48;;
49177;SDS011;35016;55.674;37.468;2023-05-02T02:47:11;5.35;;;1.73;;
49177;SDS011;35016;55.674;37.468;2023-05-02T02:52:27;3.97;;;1.30;;
49177;SDS011;35016;55.674;37.468;2023-05-02T02:55:52;4.80;;;1.38;;
49177;SDS011;35016;55.674;37.468;2023-05-02T03:00:57;4.55;;;1.38;;
49177;SDS011;35016;55.674;37.468;2023-05-02T03:03:31;4.80;;;1.20;;
49177;SDS011;35016;55.674;37.468;2023-05-02T03:06:00;4.95;;;1.50;;
49177;SDS011;35016;55.674;37.468;2023-05-02T03:08:37;3.30;;;1.20;;
49177;SDS011;35016;55.674;37.468;2023-05-02T03:11:08;5.57;;;1.65;;
49177;SDS011;35016;55.674;37.468;2023-05-02T03:13:36;5.07;;;1.55;;
49177;SDS011;35016;55.674;37.468;2023-05-02T03:18:56;4.72;;;1.17;;
49177;SDS011;35016;55.674;37.468;2023-05-02T03:21:23;4.55;;;1.40;;
49177;SDS011;35016;55.674;37.468;2023-05-02T03:23:51;4.72;;;1.40;;
49177;SDS011;35016;55.674;37.468;2023-05-02T03:26:18;4.90;;;1.50;;
49177;SDS011;35016;55.674;37.468;2023-05-02T03:28:47;5.25;;;1.63;;
49177;SDS011;35016;55.674;37.468;2023-05-02T03:31:19;6.20;;;1.90;;
49177;SDS011;35016;55.674;37.468;2023-05-02T03:33:47;4.95;;;1.80;;
49177;SDS011;35016;55.674;37.468;2023-05-02T03:36:15;3.78;;;1.40;;
49177;SDS011;35016;55.674;37.468;2023-05-02T03:38:42;4.55;;;1.50;;
49177;SDS011;35016;55.674;37.468;2023-05-02T03:41:11;6.07;;;1.55;;
49177;SDS011;35016;55.674;37.468;2023-05-02T03:43:39;6.63;;;1.80;;
49177;SDS011;35016;55.674;37.468;2023-05-02T03:46:06;5.75;;;1.73;;
49177;SDS011;35016;55.674;37.468;2023-05-02T03:48:38;4.35;;;1.52;;
49177;SDS011;35016;55.674;37.468;2023-05-02T03:51:05;3.90;;;1.33;;
49177;SDS011;35016;55.674;37.468;2023-05-02T03:53:40;4.35;;;1.58;;
49177;SDS011;35016;55.674;37.468;2023-05-02T03:56:08;7.00;;;2.33;;
49177;SDS011;35016;55.674;37.468;2023-05-02T03:58:49;6.03;;;1.75;;
49177;SDS011;35016;55.674;37.468;2023-05-02T04:01:21;5.97;;;1.55;;
49177;SDS011;35016;55.674;37.468;2023-05-02T04:03:50;5.25;;;1.73;;
49177;SDS011;35016;55.674;37.468;2023-05-02T04:06:21;8.02;;;2.53;;
49177;SDS011;35016;55.674;37.468;2023-05-02T04:11:25;7.68;;;2.10;;
49177;SDS011;35016;55.674;37.468;2023-05-02T04:13:53;5.82;;;1.77;;
49177;SDS011;35016;55.674;37.468;2023-05-02T04:16:21;7.22;;;1.65;;
49177;SDS011;35016;55.674;37.468;2023-05-02T04:18:48;8.13;;;3.20;;
49177;SDS011;35016;55.674;37.468;2023-05-02T04:21:16;6.18;;;2.22;;
49177;SDS011;35016;55.674;37.468;2023-05-02T04:23:44;5.82;;;2.25;;
49177;SDS011;35016;55.674;37.468;2023-05-02T04:26:12;4.57;;;1.70;;
49177;SDS011;35016;55.674;37.468;2023-05-02T04:28:50;7.82;;;2.03;;
49177;SDS011;35016;55.674;37.468;2023-05-02T04:31:17;6.47;;;2.47;;
49177;SDS011;35016;55.674;37.468;2023-05-02T04:33:46;5.25;;;1.70;;
49177;SDS011;35016;55.674;37.468;2023-05-02T04:36:18;5.88;;;2.10;;
49177;SDS011;35016;55.674;37.468;2023-05-02T04:38:46;7.05;;;2.10;;
49177;SDS011;35016;55.674;37.468;2023-05-02T04:41:15;5.55;;;2.03;;
49177;SDS011;35016;55.674;37.468;2023-05-02T04:43:49;4.80;;;1.95;;
49177;SDS011;35016;55.674;37.468;2023-05-02T04:46:16;5.88;;;2.03;;
49177;SDS011;35016;55.674;37.468;2023-05-02T04:48:44;8.13;;;2.47;;
49177;SDS011;35016;55.674;37.468;2023-05-02T04:51:11;5.55;;;2.35;;
49177;SDS011;35016;55.674;37.468;2023-05-02T04:53:44;7.10;;;2.50;;
49177;SDS011;35016;55.674;37.468;2023-05-02T04:56:13;6.80;;;2.38;;
49177;SDS011;35016;55.674;37.468;2023-05-02T04:58:41;7.35;;;2.28;;
49177;SDS011;35016;55.674;37.468;2023-05-02T05:01:10;6.82;;;2.30;;
49177;SDS011;35016;55.674;37.468;2023-05-02T05:03:37;5.63;;;2.25;;
49177;SDS011;35016;55.674;37.468;2023-05-02T05:06:06;7.82;;;2.60;;
49177;SDS011;35016;55.674;37.468;2023-05-02T05:08:33;6.57;;;2.22;;
49177;SDS011;35016;55.674;37.468;2023-05-02T05:11:01;5.75;;;1.98;;
49177;SDS011;35016;55.674;37.468;2023-05-02T05:13:31;8.68;;;2.40;;
49177;SDS011;35016;55.674;37.468;2023-05-02T05:15:58;6.65;;;2.00;;
49177;SDS011;35016;55.674;37.468;2023-05-02T05:18:31;6.18;;;2.30;;
49177;SDS011;35016;55.674;37.468;2023-05-02T05:21:08;5.00;;;1.67;;
49177;SDS011;35016;55.674;37.468;2023-05-02T05:23:37;7.30;;;2.15;;
49177;SDS011;35016;55.674;37.468;2023-05-02T05:26:14;8.00;;;2.60;;
49177;SDS011;35016;55.674;37.468;2023-05-02T05:28:45;5.90;;;2.00;;
49177;SDS011;35016;55.674;37.468;2023-05-02T05:31:13;6.10;;;2.13;;
49177;SDS011;35016;55.674;37.468;2023-05-02T05:33:46;7.07;;;1.83;;
49177;SDS011;35016;55.674;37.468;2023-05-02T05:36:15;4.25;;;1.77;;
49177;SDS011;35016;55.674;37.468;2023-05-02T05:38:42;4.53;;;1.55;;
49177;SDS011;35016;55.674;37.468;2023-05-02T05:41:10;8.68;;;2.33;;
49177;SDS011;35016;55.674;37.468;2023-05-02T05:43:41;4.93;;;1.67;;
49177;SDS011;35016;55.674;37.468;2023-05-02T05:46:08;4.85;;;1.52;;
49177;SDS011;35016;55.674;37.468;2023-05-02T05:48:36;4.88;;;1.65;;
49177;SDS011;35016;55.674;37.468;2023-05-02T05:51:04;4.18;;;1.50;;
49177;SDS011;35016;55.674;37.468;2023-05-02T05:53:31;4.35;;;1.50;;
49177;SDS011;35016;55.674;37.468;2023-05-02T05:56:08;6.60;;;2.58;;
49177;SDS011;35016;55.674;37.468;2023-05-02T05:58:37;5.05;;;1.65;;
49177;SDS011;35016;55.674;37.468;2023-05-02T06:01:06;6.80;;;2.40;;
49177;SDS011;35016;55.674;37.468;2023-05-02T06:03:34;5.90;;;1.90;;
49177;SDS011;35016;55.674;37.468;2023-05-02T06:06:02;5.60;;;1.92;;
49177;SDS011;35016;55.674;37.468;2023-05-02T06:08:29;5.50;;;2.13;;
49177;SDS011;35016;55.674;37.468;2023-05-02T06:10:56;5.15;;;1.25;;
49177;SDS011;35016;55.674;37.468;2023-05-02T06:13:23;7.95;;;2.00;;
49177;SDS011;35016;55.674;37.468;2023-05-02T06:15:51;6.65;;;2.08;;
49177;SDS011;35016;55.674;37.468;2023-05-02T06:18:18;6.95;;;1.95;;
49177;SDS011;35016;55.674;37.468;2023-05-02T06:20:45;6.32;;;2.00;;
49177;SDS011;35016;55.674;37.468;2023-05-02T06:23:13;3.38;;;1.23;;
49177;SDS011;35016;55.674;37.468;2023-05-02T06:25:40;4.10;;;1.30;;
49177;SDS011;35016;55.674;37.468;2023-05-02T06:28:07;5.18;;;1.40;;
49177;SDS011;35016;55.674;37.468;2023-05-02T06:30:35;5.40;;;1.70;;
49177;SDS011;35016;55.674;37.468;2023-05-02T06:33:05;4.00;;;1.25;;
49177;SDS011;35016;55.674;37.468;2023-05-02T06:35:32;6.10;;;1.40;;
49177;SDS011;35016;55.674;37.468;2023-05-02T06:37:59;3.08;;;1.27;;
49177;SDS011;35016;55.674;37.468;2023-05-02T06:40:26;3.13;;;1.20;;
49177;SDS011;35016;55.674;37.468;2023-05-02T06:42:53;3.90;;;1.20;;
49177;SDS011;35016;55.674;37.468;2023-05-02T06:45:21;3.10;;;1.05;;
49177;SDS011;35016;55.674;37.468;2023-05-02T06:47:48;3.88;;;1.15;;
49177;SDS011;35016;55.674;37.468;2023-05-02T06:50:15;2.15;;;0.80;;
49177;SDS011;35016;55.674;37.468;2023-05-02T06:52:42;3.65;;;1.20;;
49177;SDS011;35016;55.674;37.468;2023-05-02T06:55:09;4.03;;;1.00;;
49177;SDS011;35016;55.674;37.468;2023-05-02T06:57:36;5.07;;;1.00;;
49177;SDS011;35016;55.674;37.468;2023-05-02T07:00:03;2.42;;;0.70;;
49177;SDS011;35016;55.674;37.468;2023-05-02T07:02:31;4.95;;;1.15;;
49177;SDS011;35016;55.674;37.468;2023-05-02T07:04:58;2.90;;;0.60;;
49177;SDS011;35016;55.674;37.468;2023-05-02T07:07:25;3.30;;;0.75;;
49177;SDS011;35016;55.674;37.468;2023-05-02T07:09:52;1.60;;;0.60;;
49177;SDS011;35016;55.674;37.468;2023-05-02T07:12:19;3.17;;;0.90;;
49177;SDS011;35016;55.674;37.468;2023-05-02T07:14:47;3.10;;;0.80;;
49177;SDS011;35016;55.674;37.468;2023-05-02T07:17:14;1.65;;;0.63;;
49177;SDS011;35016;55.674;37.468;2023-05-02T07:19:41;2.65;;;1.00;;
49177;SDS011;35016;55.674;37.468;2023-05-02T07:22:11;3.80;;;0.90;;
49177;SDS011;35016;55.674;37.468;2023-05-02T07:24:41;0.98;;;0.55;;
49177;SDS011;35016;55.674;37.468;2023-05-02T07:27:09;2.20;;;0.90;;
49177;SDS011;35016;55.674;37.468;2023-05-02T07:29:37;3.03;;;1.00;;
49177;SDS011;35016;55.674;37.468;2023-05-02T07:32:05;2.63;;;1.05;;
49177;SDS011;35016;55.674;37.468;2023-05-02T07:34:32;2.25;;;0.60;;
49177;SDS011;35016;55.674;37.468;2023-05-02T07:36:59;2.53;;;0.75;;
49177;SDS011;35016;55.674;37.468;2023-05-02T07:39:26;2.25;;;0.75;;
49177;SDS011;35016;55.674;37.468;2023-05-02T07:41:53;3.35;;;0.90;;
49177;SDS011;35016;55.674;37.468;2023-05-02T07:44:22;2.05;;;0.80;;
49177;SDS011;35016;55.674;37.468;2023-05-02T07:46:48;1.23;;;0.60;;
49177;SDS011;35016;55.674;37.468;2023-05-02T07:49:16;1.73;;;0.70;;
49177;SDS011;35016;55.674;37.468;2023-05-02T07:51:43;3.03;;;0.80;;
49177;SDS011;35016;55.674;37.468;2023-05-02T07:54:17;3.03;;;0.95;;
49177;SDS011;35016;55.674;37.468;2023-05-02T07:56:46;3.90;;;1.40;;
49177;SDS011;35016;55.674;37.468;2023-05-02T07:59:13;2.58;;;1.05;;
49177;SDS011;35016;55.674;37.468;2023-05-02T08:01:40;2.10;;;0.98;;
49177;SDS011;35016;55.674;37.468;2023-05-02T08:04:08;1.98;;;0.85;;
49177;SDS011;35016;55.674;37.468;2023-05-02T08:06:38;3.38;;;0.80;;
49177;SDS011;35016;55.674;37.468;2023-05-02T08:09:06;2.45;;;0.93;;
49177;SDS011;35016;55.674;37.468;2023-05-02T08:11:34;3.28;;;1.08;;
49177;SDS011;35016;55.674;37.468;2023-05-02T08:14:01;2.70;;;0.70;;
49177;SDS011;35016;55.674;37.468;2023-05-02T08:16:29;4.57;;;1.23;;
49177;SDS011;35016;55.674;37.468;2023-05-02T08:18:56;2.28;;;0.70;;
49177;SDS011;35016;55.674;37.468;2023-05-02T08:21:23;1.52;;;0.50;;
49177;SDS011;35016;55.674;37.468;2023-05-02T08:23:50;2.70;;;0.90;;
49177;SDS011;35016;55.674;37.468;2023-05-02T08:26:17;2.20;;;0.65;;
49177;SDS011;35016;55.674;37.468;2023-05-02T08:28:47;2.47;;;0.70;;
49177;SDS011;35016;55.674;37.468;2023-05-02T08:31:14;2.03;;;0.77;;
49177;SDS011;35016;55.674;37.468;2023-05-02T08:33:41;2.55;;;0.73;;
49177;SDS011;35016;55.674;37.468;2023-05-02T08:36:12;2.55;;;0.70;;
49177;SDS011;35016;55.674;37.468;2023-05-02T08:38:43;0.95;;;0.47;;
49177;SDS011;35016;55.674;37.468;2023-05-02T08:41:14;2.72;;;0.95;;
49177;SDS011;35016;55.674;37.468;2023-05-02T08:43:45;3.47;;;1.00;;
49177;SDS011;35016;55.674;37.468;2023-05-02T08:46:13;1.85;;;0.47;;
49177;SDS011;35016;55.674;37.468;2023-05-02T08:48:42;3.20;;;0.90;;
49177;SDS011;35016;55.674;37.468;2023-05-02T08:51:12;4.40;;;0.88;;
49177;SDS011;35016;55.674;37.468;2023-05-02T08:53:41;3.60;;;0.85;;
49177;SDS011;35016;55.674;37.468;2023-05-02T08:56:08;2.78;;;0.82;;
49177;SDS011;35016;55.674;37.468;2023-05-02T08:58:37;2.55;;;0.60;;
49177;SDS011;35016;55.674;37.468;2023-05-02T09:01:08;2.22;;;0.63;;
49177;SDS011;35016;55.674;37.468;2023-05-02T09:03:44;3.25;;;1.15;;
49177;SDS011;35016;55.674;37.468;2023-05-02T09:06:14;2.88;;;0.60;;
49177;SDS011;35016;55.674;37.468;2023-05-02T09:08:44;2.45;;;0.68;;
49177;SDS011;35016;55.674;37.468;2023-05-02T09:11:14;2.00;;;0.55;;
49177;SDS011;35016;55.674;37.468;2023-05-02T09:13:43;2.00;;;0.75;;
49177;SDS011;35016;55.674;37.468;2023-05-02T09:16:15;1.83;;;0.80;;
49177;SDS011;35016;55.674;37.468;2023-05-02T09:18:46;2.45;;;0.80;;
49177;SDS011;35016;55.674;37.468;2023-05-02T09:21:24;2.17;;;0.70;;
49177;SDS011;35016;55.674;37.468;2023-05-02T09:24:13;4.25;;;1.27;;
49177;SDS011;35016;55.674;37.468;2023-05-02T09:26:55;2.42;;;0.77;;
49177;SDS011;35016;55.674;37.468;2023-05-02T09:29:30;3.22;;;0.98;;
49177;SDS011;35016;55.674;37.468;2023-05-02T09:32:02;2.17;;;0.73;;
49177;SDS011;35016;55.674;37.468;2023-05-02T09:34:30;2.15;;;0.80;;
49177;SDS011;35016;55.674;37.468;2023-05-02T09:37:00;2.40;;;0.90;;
49177;SDS011;35016;55.674;37.468;2023-05-02T09:39:29;3.00;;;1.10;;
49177;SDS011;35016;55.674;37.468;2023-05-02T09:41:57;3.00;;;1.00;;
49177;SDS011;35016;55.674;37.468;2023-05-02T09:44:25;2.58;;;0.90;;
49177;SDS011;35016;55.674;37.468;2023-05-02T09:47:01;3.60;;;1.00;;
49177;SDS011;35016;55.674;37.468;2023-05-02T09:49:42;3.40;;;0.90;;
49177;SDS011;35016;55.674;37.468;2023-05-02T09:52:12;4.15;;;1.10;;
49177;SDS011;35016;55.674;37.468;2023-05-02T09:54:43;2.17;;;0.77;;
49177;SDS011;35016;55.674;37.468;2023-05-02T09:57:12;2.40;;;0.75;;
49177;SDS011;35016;55.674;37.468;2023-05-02T09:59:39;3.25;;;0.98;;
49177;SDS011;35016;55.674;37.468;2023-05-02T10:02:07;3.55;;;1.00;;
49177;SDS011;35016;55.674;37.468;2023-05-02T10:04:37;2.92;;;1.02;;
49177;SDS011;35016;55.674;37.468;2023-05-02T10:07:06;2.42;;;0.77;;
49177;SDS011;35016;55.674;37.468;2023-05-02T10:09:37;5.47;;;1.60;;
49177;SDS011;35016;55.674;37.468;2023-05-02T10:12:09;4.97;;;1.20;;
49177;SDS011;35016;55.674;37.468;2023-05-02T10:14:46;1.90;;;0.60;;
49177;SDS011;35016;55.674;37.468;2023-05-02T10:17:25;1.60;;;0.75;;
49177;SDS011;35016;55.674;37.468;2023-05-02T10:19:59;2.08;;;0.65;;
49177;SDS011;35016;55.674;37.468;2023-05-02T10:22:29;1.98;;;0.65;;
49177;SDS011;35016;55.674;37.468;2023-05-02T10:24:57;3.22;;;0.95;;
49177;SDS011;35016;55.674;37.468;2023-05-02T10:27:26;2.78;;;0.80;;
49177;SDS011;35016;55.674;37.468;2023-05-02T10:29:57;3.30;;;0.98;;
49177;SDS011;35016;55.674;37.468;2023-05-02T10:32:28;2.88;;;0.85;;
49177;SDS011;35016;55.674;37.468;2023-05-02T10:35:01;1.77;;;0.80;;
49177;SDS011;35016;55.674;37.468;2023-05-02T10:37:33;4.72;;;0.85;;
49177;SDS011;35016;55.674;37.468;2023-05-02T10:40:04;3.28;;;1.10;;
49177;SDS011;35016;55.674;37.468;2023-05-02T10:42:39;4.30;;;0.95;;
49177;SDS011;35016;55.674;37.468;2023-05-02T10:45:10;1.90;;;0.82;;
49177;SDS011;35016;55.674;37.468;2023-05-02T10:47:39;3.53;;;0.75;;
49177;SDS011;35016;55.674;37.468;2023-05-02T10:50:06;3.47;;;0.85;;
49177;SDS011;35016;55.674;37.468;2023-05-02T10:52:35;2.63;;;0.80;;
49177;SDS011;35016;55.674;37.468;2023-05-02T10:55:13;2.80;;;0.95;;
49177;SDS011;35016;55.674;37.468;2023-05-02T11:00:24;2.92;;;1.10;;
49177;SDS011;35016;55.674;37.468;2023-05-02T11:02:56;2.58;;;1.00;;
49177;SDS011;35016;55.674;37.468;2023-05-02T11:05:24;2.92;;;1.17;;
49177;SDS011;35016;55.674;37.468;2023-05-02T11:08:36;1.35;;;0.63;;
49177;SDS011;35016;55.674;37.468;2023-05-02T11:10:42;3.95;;;1.17;;
49177;SDS011;35016;55.674;37.468;2023-05-02T11:13:11;2.40;;;0.82;;
49177;SDS011;35016;55.674;37.468;2023-05-02T11:18:08;3.47;;;0.90;;
49177;SDS011;35016;55.674;37.468;2023-05-02T11:20:40;3.35;;;0.77;;
49177;SDS011;35016;55.674;37.468;2023-05-02T11:25:48;2.65;;;1.08;;
49177;SDS011;35016;55.674;37.468;2023-05-02T11:31:04;2.05;;;0.70;;
49177;SDS011;35016;55.674;37.468;2023-05-02T11:33:32;4.25;;;1.00;;
49177;SDS011;35016;55.674;37.468;2023-05-02T11:36:00;3.90;;;1.10;;
49177;SDS011;35016;55.674;37.468;2023-05-02T11:38:34;4.70;;;1.02;;
49177;SDS011;35016;55.674;37.468;2023-05-02T11:41:03;2.83;;;0.98;;
49177;SDS011;35016;55.674;37.468;2023-05-02T11:43:31;1.63;;;0.70;;
49177;SDS011;35016;55.674;37.468;2023-05-02T11:45:58;4.22;;;1.48;;
49177;SDS011;35016;55.674;37.468;2023-05-02T11:48:27;4.05;;;1.25;;
49177;SDS011;35016;55.674;37.468;2023-05-02T11:50:57;3.33;;;1.02;;
49177;SDS011;35016;55.674;37.468;2023-05-02T11:53:29;3.63;;;1.23;;
49177;SDS011;35016;55.674;37.468;2023-05-02T11:55:58;4.68;;;1.20;;
49177;SDS011;35016;55.674;37.468;2023-05-02T11:58:27;6.38;;;1.63;;
49177;SDS011;35016;55.674;37.468;2023-05-02T12:00:59;3.30;;;1.17;;
49177;SDS011;35016;55.674;37.468;2023-05-02T12:03:39;3.67;;;1.02;;
49177;SDS011;35016;55.674;37.468;2023-05-02T12:06:10;2.63;;;1.05;;
49177;SDS011;35016;55.674;37.468;2023-05-02T12:08:41;2.53;;;0.85;;
49177;SDS011;35016;55.674;37.468;2023-05-02T12:11:09;4.13;;;1.10;;
49177;SDS011;35016;55.674;37.468;2023-05-02T12:13:46;3.17;;;1.20;;
49177;SDS011;35016;55.674;37.468;2023-05-02T12:16:14;3.80;;;1.30;;
49177;SDS011;35016;55.674;37.468;2023-05-02T12:18:42;5.25;;;1.40;;
49177;SDS011;35016;55.674;37.468;2023-05-02T12:21:10;5.88;;;1.55;;
49177;SDS011;35016;55.674;37.468;2023-05-02T12:23:38;4.78;;;1.48;;
49177;SDS011;35016;55.674;37.468;2023-05-02T12:26:21;5.22;;;1.60;;
49177;SDS011;35016;55.674;37.468;2023-05-02T12:28:55;4.97;;;1.52;;
49177;SDS011;35016;55.674;37.468;2023-05-02T12:31:23;6.03;;;1.70;;
49177;SDS011;35016;55.674;37.468;2023-05-02T12:33:51;4.72;;;1.20;;
49177;SDS011;35016;55.674;37.468;2023-05-02T12:36:23;3.80;;;1.20;;
49177;SDS011;35016;55.674;37.468;2023-05-02T12:38:51;4.55;;;1.48;;
49177;SDS011;35016;55.674;37.468;2023-05-02T12:41:35;4.20;;;1.25;;
49177;SDS011;35016;55.674;37.468;2023-05-02T12:44:04;5.78;;;1.80;;
49177;SDS011;35016;55.674;37.468;2023-05-02T12:46:32;6.43;;;1.77;;
49177;SDS011;35016;55.674;37.468;2023-05-02T12:49:03;5.57;;;1.58;;
49177;SDS011;35016;55.674;37.468;2023-05-02T12:51:51;4.38;;;1.60;;
49177;SDS011;35016;55.674;37.468;2023-05-02T12:54:19;3.95;;;1.27;;
49177;SDS011;35016;55.674;37.468;2023-05-02T12:56:46;5.10;;;1.50;;
49177;SDS011;35016;55.674;37.468;2023-05-02T12:59:27;4.40;;;1.83;;
49177;SDS011;35016;55.674;37.468;2023-05-02T13:01:56;4.97;;;1.40;;
49177;SDS011;35016;55.674;37.468;2023-05-02T13:04:33;5.85;;;1.88;;
49177;SDS011;35016;55.674;37.468;2023-05-02T13:07:00;3.28;;;1.00;;
49177;SDS011;35016;55.674;37.468;2023-05-02T13:09:27;6.97;;;1.73;;
49177;SDS011;35016;55.674;37.468;2023-05-02T13:11:54;6.22;;;1.45;;
49177;SDS011;35016;55.674;37.468;2023-05-02T13:14:22;4.55;;;1.48;;
49177;SDS011;35016;55.674;37.468;2023-05-02T13:16:49;4.20;;;1.63;;
49177;SDS011;35016;55.674;37.468;2023-05-02T13:19:19;2.67;;;0.85;;
49177;SDS011;35016;55.674;37.468;2023-05-02T13:21:48;3.67;;;1.02;;
49177;SDS011;35016;55.674;37.468;2023-05-02T13:24:15;2.97;;;1.13;;
49177;SDS011;35016;55.674;37.468;2023-05-02T13:26:43;2.78;;;1.05;;
49177;SDS011;35016;55.674;37.468;2023-05-02T13:29:10;5.00;;;1.30;;
49177;SDS011;35016;55.674;37.468;2023-05-02T13:31:38;3.33;;;1.10;;
49177;SDS011;35016;55.674;37.468;2023-05-02T13:34:05;6.43;;;1.20;;
49177;SDS011;35016;55.674;37.468;2023-05-02T13:36:32;4.43;;;1.17;;
49177;SDS011;35016;55.674;37.468;2023-05-02T13:39:00;4.75;;;1.40;;
49177;SDS011;35016;55.674;37.468;2023-05-02T13:41:27;5.43;;;1.35;;
49177;SDS011;35016;55.674;37.468;2023-05-02T13:43:54;3.22;;;1.23;;
49177;SDS011;35016;55.674;37.468;2023-05-02T13:46:22;2.95;;;1.27;;
49177;SDS011;35016;55.674;37.468;2023-05-02T13:48:49;4.82;;;1.00;;
49177;SDS011;35016;55.674;37.468;2023-05-02T13:51:16;4.07;;;1.38;;
49177;SDS011;35016;55.674;37.468;2023-05-02T13:53:43;3.08;;;1.00;;
49177;SDS011;35016;55.674;37.468;2023-05-02T13:56:10;3.15;;;1.20;;
49177;SDS011;35016;55.674;37.468;2023-05-02T13:58:38;3.13;;;1.10;;
49177;SDS011;35016;55.674;37.468;2023-05-02T14:01:05;2.65;;;1.15;;
49177;SDS011;35016;55.674;37.468;2023-05-02T14:03:32;5.18;;;1.40;;
49177;SDS011;35016;55.674;37.468;2023-05-02T14:05:59;2.53;;;1.08;;
49177;SDS011;35016;55.674;37.468;2023-05-02T14:08:27;2.20;;;0.85;;
49177;SDS011;35016;55.674;37.468;2023-05-02T14:10:54;3.40;;;1.10;;
49177;SDS011;35016;55.674;37.468;2023-05-02T14:13:21;3.92;;;1.05;;
49177;SDS011;35016;55.674;37.468;2023-05-02T14:15:48;3.72;;;1.38;;
49177;SDS011;35016;55.674;37.468;2023-05-02T14:18:15;3.38;;;1.20;;
49177;SDS011;35016;55.674;37.468;2023-05-02T14:20:42;2.28;;;0.90;;
49177;SDS011;35016;55.674;37.468;2023-05-02T14:23:09;2.05;;;0.82;;
49177;SDS011;35016;55.674;37.468;2023-05-02T14:25:37;2.92;;;1.10;;
49177;SDS011;35016;55.674;37.468;2023-05-02T14:28:04;5.28;;;1.02;;
49177;SDS011;35016;55.674;37.468;2023-05-02T14:30:31;4.32;;;1.10;;
49177;SDS011;35016;55.674;37.468;2023-05-02T14:32:59;4.80;;;1.33;;
49177;SDS011;35016;55.674;37.468;2023-05-02T14:35:26;2.47;;;0.90;;
49177;SDS011;35016;55.674;37.468;2023-05-02T14:37:53;3.83;;;1.08;;
49177;SDS011;35016;55.674;37.468;2023-05-02T14:40:20;4.20;;;1.00;;
49177;SDS011;35016;55.674;37.468;2023-05-02T14:42:47;4.03;;;1.10;;
49177;SDS011;35016;55.674;37.468;2023-05-02T14:45:14;4.22;;;1.33;;
49177;SDS011;35016;55.674;37.468;2023-05-02T14:47:41;4.18;;;1.00;;
49177;SDS011;35016;55.674;37.468;2023-05-02T14:50:09;4.90;;;1.42;;
49177;SDS011;35016;55.674;37.468;2023-05-02T14:52:36;3.80;;;1.10;;
49177;SDS011;35016;55.674;37.468;2023-05-02T14:55:03;3.25;;;1.23;;
49177;SDS011;35016;55.674;37.468;2023-05-02T14:57:30;2.92;;;0.90;;
49177;SDS011;35016;55.674;37.468;2023-05-02T14:59:58;2.80;;;1.00;;
49177;SDS011;35016;55.674;37.468;2023-05-02T15:02:25;2.05;;;0.80;;
49177;SDS011;35016;55.674;37.468;2023-05-02T15:04:52;4.93;;;1.38;;
49177;SDS011;35016;55.674;37.468;2023-05-02T15:07:22;2.75;;;0.88;;
49177;SDS011;35016;55.674;37.468;2023-05-02T15:09:52;3.13;;;1.17;;
49177;SDS011;35016;55.674;37.468;2023-05-02T15:12:19;3.35;;;0.98;;
49177;SDS011;35016;55.674;37.468;2023-05-02T15:14:47;3.40;;;0.88;;
49177;SDS011;35016;55.674;37.468;2023-05-02T15:17:14;3.38;;;1.05;;
49177;SDS011;35016;55.674;37.468;2023-05-02T15:19:41;3.35;;;1.08;;
49177;SDS011;35016;55.674;37.468;2023-05-02T15:22:08;5.88;;;1.35;;
49177;SDS011;35016;55.674;37.468;2023-05-02T15:24:35;6.20;;;1.92;;
49177;SDS011;35016;55.674;37.468;2023-05-02T15:27:03;3.20;;;1.05;;
49177;SDS011;35016;55.674;37.468;2023-05-02T15:29:30;3.03;;;0.98;;
49177;SDS011;35016;55.674;37.468;2023-05-02T15:31:57;4.25;;;1.30;;